Time;durP1;ratioP1;P1;durP2;ratioP2;P2;SDS_P1;SDS_P2;PMS_P1;PMS_P2;Temp;Humidity;BMP_temperature;BMP_pressure;BME280_temperature;BME280_humidity;BME280_pressure;Samples;Min_cycle;Max_cycle;Signal;HPM_P1;HPM_P2
2022/08/02 00:02:03;;;;;;;2.77;1.40;;;;;;;20.07;88.91;98268.88;5053195;28;20205;-70
2022/08/02 00:04:30;;;;;;;2.50;1.40;;;;;;;20.17;88.46;98270.78;5053691;28;20213;-70
2022/08/02 00:06:57;;;;;;;2.53;1.53;;;;;;;20.14;88.65;98265.91;5052981;28;20668;-71
2022/08/02 00:09:23;;;;;;;1.80;1.70;;;;;;;20.02;89.44;98257.31;5053329;28;20232;-70
2022/08/02 00:11:50;;;;;;;2.70;2.10;;;;;;;20.08;89.23;98256.19;5053149;28;20207;-70
2022/08/02 00:14:17;;;;;;;3.10;2.03;;;;;;;19.94;90.12;98261.34;5052758;28;20767;-70
2022/08/02 00:16:44;;;;;;;2.67;1.87;;;;;;;20.12;89.47;98257.28;5052739;28;20237;-70
2022/08/02 00:19:10;;;;;;;2.43;1.80;;;;;;;20.20;89.16;98262.09;5052864;28;20301;-70
2022/08/02 00:21:37;;;;;;;2.13;1.77;;;;;;;20.11;89.96;98266.47;5053055;28;20295;-70
2022/08/02 00:24:04;;;;;;;3.13;1.80;;;;;;;20.10;90.77;98270.25;5052729;28;20212;-70
2022/08/02 00:26:31;;;;;;;2.20;2.00;;;;;;;20.02;92.34;98265.41;5052720;28;20209;-70
2022/08/02 00:28:57;;;;;;;2.20;2.00;;;;;;;19.96;93.97;98267.28;5052867;28;20318;-70
2022/08/02 00:31:24;;;;;;;2.20;2.03;;;;;;;20.04;93.93;98260.50;5053173;28;20284;-70
2022/08/02 00:33:50;;;;;;;2.10;1.90;;;;;;;20.09;93.80;98263.22;5053083;28;20278;-70
2022/08/02 00:36:17;;;;;;;2.43;2.20;;;;;;;19.96;94.79;98267.28;5053289;28;20212;-70
2022/08/02 00:38:45;;;;;;;2.37;2.17;;;;;;;20.07;94.24;98262.69;5052373;28;20243;-70
2022/08/02 00:41:18;;;;;;;2.40;2.17;;;;;;;20.03;94.35;98267.00;5053271;28;20204;-70
2022/08/02 00:43:45;;;;;;;3.73;1.83;;;;;;;20.04;94.34;98265.91;5053006;28;20213;-70
2022/08/02 00:46:13;;;;;;;2.23;2.03;;;;;;;20.01;94.31;98261.06;5052914;28;20205;-70
2022/08/02 00:48:39;;;;;;;4.60;2.37;;;;;;;19.96;94.26;98252.97;5052613;28;20229;-70
2022/08/02 00:51:06;;;;;;;2.30;2.10;;;;;;;19.97;94.40;98258.09;5053012;28;20205;-70
2022/08/02 00:53:33;;;;;;;2.73;2.27;;;;;;;19.85;94.99;98268.38;5052494;28;20212;-71
2022/08/02 00:56:00;;;;;;;2.30;2.10;;;;;;;19.86;94.93;98261.09;5052717;28;20211;-70
2022/08/02 00:58:27;;;;;;;3.93;2.30;;;;;;;19.93;94.13;98258.94;5052378;28;20239;-70
2022/08/02 01:00:56;;;;;;;3.63;2.20;;;;;;;19.87;94.30;98260.00;5052732;28;20209;-70
2022/08/02 01:03:23;;;;;;;3.13;2.20;;;;;;;19.73;95.17;98253.56;5052725;28;20209;-70
2022/08/02 01:05:50;;;;;;;2.57;1.97;;;;;;;19.81;94.32;98250.31;5052888;28;20205;-71
2022/08/02 01:08:17;;;;;;;2.60;2.40;;;;;;;19.82;93.87;98247.34;5052832;28;20288;-70
2022/08/02 01:10:43;;;;;;;2.23;2.03;;;;;;;19.85;92.74;98251.41;5052867;28;20303;-70
2022/08/02 01:13:10;;;;;;;1.90;1.80;;;;;;;19.85;92.53;98244.09;5052762;28;20300;-71
2022/08/02 01:15:43;;;;;;;2.83;2.10;;;;;;;19.84;91.65;98255.97;5052808;28;20205;-70
2022/08/02 01:18:21;;;;;;;3.67;1.80;;;;;;;19.87;91.84;98249.22;5052767;28;20213;-70
2022/08/02 01:21:25;;;;;;;4.80;2.27;;;;;;;19.88;91.10;98267.03;5035176;28;20277;-70
2022/08/02 01:24:01;;;;;;;2.03;1.93;;;;;;;19.80;91.32;98264.91;5052486;28;20288;-70
2022/08/02 01:26:43;;;;;;;2.63;1.93;;;;;;;19.83;91.10;98265.16;5057182;28;20287;-70
2022/08/02 01:29:28;;;;;;;2.13;1.80;;;;;;;19.79;91.20;98264.06;5055840;28;20599;-70
2022/08/02 01:32:10;;;;;;;3.30;2.27;;;;;;;19.75;91.54;98270.31;5055945;28;20595;-70
2022/08/02 01:34:49;;;;;;;2.17;1.90;;;;;;;19.69;91.60;98274.88;5055976;28;20197;-71
2022/08/02 01:37:24;;;;;;;2.37;2.17;;;;;;;19.67;91.86;98271.63;5056178;28;20213;-70
2022/08/02 01:39:56;;;;;;;2.10;1.90;;;;;;;19.64;92.02;98273.00;5056075;28;20224;-70
2022/08/02 01:42:25;;;;;;;2.10;1.63;;;;;;;19.60;92.18;98269.22;5038772;28;20225;-70
2022/08/02 01:44:53;;;;;;;2.07;1.97;;;;;;;19.63;91.86;98273.28;5038023;28;20668;-70
2022/08/02 01:47:29;;;;;;;1.80;1.70;;;;;;;19.67;91.23;98279.72;5055645;28;20205;-70
2022/08/02 01:49:58;;;;;;;3.23;1.70;;;;;;;19.62;91.50;98279.75;5055578;28;20256;-70
2022/08/02 01:52:29;;;;;;;2.13;1.60;;;;;;;19.67;91.40;98281.63;5055909;28;20212;-70
2022/08/02 01:55:09;;;;;;;1.93;1.77;;;;;;;19.67;91.24;98277.03;5055877;28;20193;-70
2022/08/02 01:57:49;;;;;;;2.90;2.00;;;;;;;19.67;91.33;98281.63;5055636;28;20224;-70
2022/08/02 02:00:17;;;;;;;2.17;1.97;;;;;;;19.67;91.08;98281.63;5055700;28;20308;-70
2022/08/02 02:02:48;;;;;;;2.00;1.80;;;;;;;19.71;90.49;98282.72;5055721;28;20205;-70
2022/08/02 02:05:18;;;;;;;3.00;1.60;;;;;;;19.76;90.06;98290.81;5055665;28;20553;-70
2022/08/02 02:07:46;;;;;;;1.80;1.70;;;;;;;19.78;89.41;98284.06;5055326;28;20185;-70
2022/08/02 02:10:16;;;;;;;2.67;1.87;;;;;;;19.77;89.09;98292.41;5055407;28;20232;-70
2022/08/02 02:12:45;;;;;;;1.97;1.60;;;;;;;19.79;88.91;98288.38;5055176;28;20236;-70
2022/08/02 02:15:13;;;;;;;2.20;2.00;;;;;;;19.77;88.45;98288.63;5055107;28;20291;-70
2022/08/02 02:17:43;;;;;;;1.67;1.57;;;;;;;19.75;88.29;98284.59;5038323;28;20275;-70
2022/08/02 02:20:15;;;;;;;1.90;1.70;;;;;;;19.73;88.08;98288.63;5037868;28;20324;-70
2022/08/02 02:22:43;;;;;;;1.77;1.67;;;;;;;19.64;88.44;98285.69;5055299;28;20649;-70
2022/08/02 02:25:10;;;;;;;1.97;1.80;;;;;;;19.62;88.54;98278.94;5055508;28;20300;-71
2022/08/02 02:27:39;;;;;;;2.00;1.70;;;;;;;19.62;88.41;98281.66;5055218;28;20201;-70
2022/08/02 02:30:06;;;;;;;1.70;1.60;;;;;;;19.45;89.32;98285.41;5054815;28;20233;-70
2022/08/02 02:32:35;;;;;;;1.77;1.60;;;;;;;19.47;88.98;98277.06;5055161;28;20292;-70
2022/08/02 02:35:04;;;;;;;1.93;1.63;;;;;;;19.44;89.07;98275.72;5037399;28;20260;-71
2022/08/02 02:37:33;;;;;;;1.60;1.47;;;;;;;19.40;89.35;98271.94;5055705;28;20263;-70
2022/08/02 02:40:00;;;;;;;2.07;1.60;;;;;;;19.37;89.57;98274.38;5054885;28;20232;-70
2022/08/02 02:42:30;;;;;;;2.40;1.73;;;;;;;19.36;89.40;98265.47;5054646;28;20205;-70
2022/08/02 02:44:58;;;;;;;1.90;1.70;;;;;;;19.25;90.34;98273.81;5054877;28;20205;-70
2022/08/02 02:47:27;;;;;;;1.93;1.60;;;;;;;19.14;90.90;98278.34;5037496;28;20208;-70
2022/08/02 02:49:55;;;;;;;2.73;1.70;;;;;;;19.18;90.83;98279.44;5054695;28;20648;-70
2022/08/02 02:52:21;;;;;;;1.80;1.70;;;;;;;19.19;90.95;98264.88;5037091;28;20205;-70
2022/08/02 02:54:49;;;;;;;1.83;1.73;;;;;;;19.07;91.57;98271.59;5054559;28;20209;-70
2022/08/02 02:57:16;;;;;;;3.27;1.70;;;;;;;19.11;91.67;98265.44;5054366;28;20215;-70
2022/08/02 02:59:43;;;;;;;2.43;1.90;;;;;;;19.04;92.52;98261.34;5054245;28;20312;-71
2022/08/02 03:02:11;;;;;;;4.13;1.77;;;;;;;19.02;93.12;98263.53;5054518;28;20232;-71
2022/08/02 03:04:40;;;;;;;4.43;2.30;;;;;;;19.00;94.50;98257.59;5054477;28;20212;-70
2022/08/02 03:07:06;;;;;;;5.27;2.20;;;;;;;19.06;94.24;98264.59;5054073;28;20292;-70
2022/08/02 03:09:33;;;;;;;2.80;2.50;;;;;;;19.06;94.84;98262.72;5054247;28;20304;-70
2022/08/02 03:11:59;;;;;;;2.40;2.20;;;;;;;19.07;94.88;98256.25;5053979;28;20299;-70
2022/08/02 03:14:26;;;;;;;2.90;2.60;;;;;;;18.97;95.85;98253.56;5054133;28;20205;-70
2022/08/02 03:16:54;;;;;;;2.50;2.20;;;;;;;18.94;96.63;98261.34;5036935;28;20201;-70
2022/08/02 03:19:21;;;;;;;3.27;2.63;;;;;;;18.88;97.02;98257.03;5053893;28;20239;-70
2022/08/02 03:21:49;;;;;;;3.30;2.27;;;;;;;18.87;96.92;98250.03;5054005;28;20292;-71
2022/08/02 03:24:16;;;;;;;5.97;2.70;;;;;;;18.88;97.10;98263.25;5053739;28;20688;-70
2022/08/02 03:26:42;;;;;;;3.97;2.50;;;;;;;18.83;97.17;98271.28;5053918;28;20201;-70
2022/08/02 03:29:09;;;;;;;3.93;2.60;;;;;;;18.75;97.62;98271.84;5053632;28;20659;-70
2022/08/02 03:31:36;;;;;;;2.97;2.50;;;;;;;18.78;97.63;98275.88;5053884;28;20193;-70
2022/08/02 03:34:03;;;;;;;2.60;2.40;;;;;;;18.70;98.26;98274.50;5053471;28;20255;-70
2022/08/02 03:36:32;;;;;;;4.77;2.63;;;;;;;18.58;99.27;98276.63;5053610;28;20201;-70
2022/08/02 03:39:01;;;;;;;3.50;2.93;;;;;;;18.64;99.07;98272.88;5053209;28;20225;-71
2022/08/02 03:41:29;;;;;;;3.37;2.60;;;;;;;18.62;99.14;98285.78;5053546;28;20209;-70
2022/08/02 03:43:56;;;;;;;4.73;2.83;;;;;;;18.62;99.44;98285.78;5053326;28;20221;-70
2022/08/02 03:46:24;;;;;;;2.87;2.60;;;;;;;18.61;99.56;98283.34;5053375;28;20205;-70
2022/08/02 03:48:52;;;;;;;3.37;2.83;;;;;;;18.58;99.68;98287.41;5052981;28;20347;-70
2022/08/02 03:51:19;;;;;;;3.80;2.90;;;;;;;18.54;99.86;98285.47;5053324;28;20688;-70
2022/08/02 03:53:47;;;;;;;3.93;2.80;;;;;;;18.45;100.00;98290.56;5053475;28;20292;-70
2022/08/02 03:56:15;;;;;;;4.27;2.90;;;;;;;18.47;100.00;98288.44;5053063;28;20664;-70
2022/08/02 03:58:41;;;;;;;4.13;2.87;;;;;;;18.44;100.00;98296.22;5052922;28;20751;-70
2022/08/02 04:01:08;;;;;;;6.23;3.10;;;;;;;18.49;100.00;98299.75;5052535;28;20784;-70
2022/08/02 04:03:34;;;;;;;4.70;2.77;;;;;;;18.53;100.00;98291.94;5053035;28;20207;-70
2022/08/02 04:06:01;;;;;;;4.70;2.70;;;;;;;18.54;100.00;98299.75;5053040;28;20227;-70
2022/08/02 04:08:27;;;;;;;6.27;3.17;;;;;;;18.52;100.00;98295.72;5053114;28;20208;-70
2022/08/02 04:13:39;;;;;;;4.13;2.50;;;;;;;18.58;100.00;98316.19;5027393;28;20200;-70
2022/08/02 04:16:21;;;;;;;3.80;2.60;;;;;;;18.59;99.79;98313.25;5053355;28;20201;-70
2022/08/02 04:18:56;;;;;;;5.63;2.67;;;;;;;18.62;99.86;98315.41;5052957;28;20256;-70
2022/08/02 04:21:26;;;;;;;3.73;2.47;;;;;;;18.58;100.00;98319.72;5053492;28;20185;-70
2022/08/02 04:23:54;;;;;;;4.40;2.17;;;;;;;18.61;99.92;98321.06;5052833;28;20600;-70
2022/08/02 04:26:21;;;;;;;2.83;2.23;;;;;;;18.67;99.57;98320.81;5053005;28;20718;-70
2022/08/02 04:28:48;;;;;;;5.77;2.50;;;;;;;18.65;99.89;98319.47;5052852;28;20228;-71
2022/08/02 04:31:17;;;;;;;3.93;2.40;;;;;;;18.66;99.76;98323.78;5053079;28;20194;-70
2022/08/02 04:33:44;;;;;;;4.37;2.40;;;;;;;18.73;99.31;98330.53;5035015;28;20292;-70
2022/08/02 04:36:13;;;;;;;4.67;2.40;;;;;;;18.75;98.97;98332.97;5052579;28;20742;-70
2022/08/02 04:38:39;;;;;;;2.23;2.03;;;;;;;18.80;98.79;98332.97;5052359;28;20715;-70
2022/08/02 04:41:06;;;;;;;2.87;2.40;;;;;;;18.77;99.05;98337.00;5052883;28;20209;-70
2022/08/02 04:43:32;;;;;;;3.77;2.43;;;;;;;18.85;98.33;98344.59;5052233;28;20217;-70
2022/08/02 04:46:01;;;;;;;2.10;1.87;;;;;;;18.87;97.98;98339.72;5052235;28;20608;-70
2022/08/02 04:48:28;;;;;;;2.17;2.07;;;;;;;18.91;97.85;98330.03;5052443;28;20197;-70
2022/08/02 04:50:55;;;;;;;4.10;2.30;;;;;;;18.88;98.11;98335.16;5052598;28;20205;-70
2022/08/02 04:53:21;;;;;;;3.93;2.20;;;;;;;18.93;97.69;98335.19;5053066;28;20216;-70
2022/08/02 04:55:48;;;;;;;3.13;2.40;;;;;;;18.96;96.85;98324.66;5052797;28;20237;-70
2022/08/02 04:58:14;;;;;;;3.17;2.30;;;;;;;18.96;96.78;98323.88;5052436;28;20307;-70
2022/08/02 05:00:41;;;;;;;6.33;2.50;;;;;;;19.01;96.80;98335.47;5055393;28;20220;-70
2022/08/02 05:03:07;;;;;;;2.47;2.27;;;;;;;19.10;95.62;98315.00;5056264;28;20249;-70
2022/08/02 05:05:34;;;;;;;3.17;2.43;;;;;;;19.28;94.79;98327.22;5056422;28;20205;-70
2022/08/02 05:08:00;;;;;;;4.47;2.60;;;;;;;19.50;93.23;98331.25;5056330;28;20300;-70
2022/08/02 05:10:27;;;;;;;4.70;2.90;;;;;;;19.67;91.80;98323.72;5055794;28;20308;-70
2022/08/02 05:12:53;;;;;;;3.20;2.83;;;;;;;19.79;90.67;98328.84;5055901;28;20208;-70
2022/08/02 05:15:20;;;;;;;5.50;2.77;;;;;;;20.00;89.51;98329.63;5056069;28;20736;-70
2022/08/02 05:17:48;;;;;;;4.60;2.53;;;;;;;20.15;87.68;98335.00;5056105;28;20284;-70
2022/08/02 05:20:16;;;;;;;4.73;3.03;;;;;;;20.13;87.69;98323.69;5056020;28;20316;-70
2022/08/02 05:22:43;;;;;;;5.33;2.87;;;;;;;20.05;87.81;98329.59;5055186;28;20686;-70
2022/08/02 05:25:10;;;;;;;4.00;2.90;;;;;;;20.07;87.96;98330.94;5055686;28;20209;-70
2022/08/02 05:27:36;;;;;;;5.53;2.80;;;;;;;20.08;88.02;98329.06;5055443;28;20691;-70
2022/08/02 05:30:04;;;;;;;5.70;3.10;;;;;;;20.15;88.24;98325.03;5055101;28;20233;-70
2022/08/02 05:32:30;;;;;;;2.97;2.67;;;;;;;20.23;87.70;98323.66;5055667;28;20206;-70
2022/08/02 05:34:57;;;;;;;4.57;2.73;;;;;;;20.36;86.13;98320.38;5055546;28;20312;-70
2022/08/02 05:37:23;;;;;;;3.27;2.77;;;;;;;20.20;84.08;98318.78;5055702;28;20296;-70
2022/08/02 05:39:50;;;;;;;5.50;3.10;;;;;;;20.24;84.31;98319.88;5055469;28;20312;-70
2022/08/02 05:42:16;;;;;;;3.53;2.50;;;;;;;20.25;83.52;98318.81;5055409;28;20205;-70
2022/08/02 05:44:42;;;;;;;2.50;2.27;;;;;;;20.24;79.56;98322.56;5055806;28;20208;-70
2022/08/02 05:47:09;;;;;;;3.33;2.60;;;;;;;20.36;78.77;98317.69;5055131;28;20201;-70
2022/08/02 05:49:35;;;;;;;3.27;2.60;;;;;;;20.23;77.03;98326.34;5055289;28;20278;-70
2022/08/02 05:52:17;;;;;;;4.40;2.90;;;;;;;20.57;76.97;98322.72;5055196;28;20237;-70
2022/08/02 05:55:16;;;;;;;3.87;2.33;;;;;;;20.61;74.88;98325.72;5054944;28;20717;-70
2022/08/02 05:57:53;;;;;;;2.73;2.53;;;;;;;20.34;75.75;98331.47;5054863;28;20205;-71
2022/08/02 06:00:21;;;;;;;5.07;3.03;;;;;;;20.42;75.79;98324.69;5054670;28;20691;-70
2022/08/02 06:03:04;;;;;;;3.13;2.63;;;;;;;20.37;75.86;98324.69;5055279;28;20288;-70
2022/08/02 06:05:35;;;;;;;3.63;2.60;;;;;;;20.41;75.90;98332.00;5055042;28;20193;-70
2022/08/02 06:08:02;;;;;;;2.83;2.47;;;;;;;20.55;75.32;98324.09;5055314;28;20189;-71
2022/08/02 06:10:30;;;;;;;4.13;2.60;;;;;;;20.68;75.98;98328.91;5054140;28;20783;-70
2022/08/02 06:13:08;;;;;;;2.67;2.33;;;;;;;20.87;73.97;98330.72;5055394;28;20209;-71
2022/08/02 06:15:36;;;;;;;3.23;2.40;;;;;;;20.92;74.24;98325.31;5055072;28;20276;-69
2022/08/02 06:18:05;;;;;;;4.83;2.73;;;;;;;20.92;73.11;98332.59;5055231;28;20209;-70
2022/08/02 06:20:35;;;;;;;4.47;2.53;;;;;;;20.94;74.03;98328.53;5054526;28;20243;-70
2022/08/02 06:23:05;;;;;;;3.63;2.67;;;;;;;21.06;73.20;98339.00;5054342;28;20209;-71
2022/08/02 06:25:34;;;;;;;2.90;2.70;;;;;;;21.17;71.87;98340.59;5054681;28;20228;-70
2022/08/02 06:28:02;;;;;;;4.60;2.57;;;;;;;21.07;72.10;98341.44;5054631;28;20201;-70
2022/08/02 06:30:30;;;;;;;2.83;2.60;;;;;;;21.04;72.28;98335.78;5054150;28;20320;-70
2022/08/02 06:32:57;;;;;;;5.37;2.57;;;;;;;21.35;70.91;98339.94;5054262;28;20759;-70
2022/08/02 06:35:35;;;;;;;5.27;3.00;;;;;;;21.35;70.33;98334.53;5054728;28;20292;-70
2022/08/02 06:38:02;;;;;;;4.87;2.97;;;;;;;21.37;71.46;98337.75;5036749;28;20651;-70
2022/08/02 06:40:48;;;;;;;3.07;2.63;;;;;;;21.38;70.02;98334.75;5054417;28;20311;-71
2022/08/02 06:43:29;;;;;;;3.17;2.33;;;;;;;21.48;70.88;98337.38;5054886;28;20196;-70
2022/08/02 06:45:55;;;;;;;2.97;2.67;;;;;;;21.51;69.80;98326.00;5054538;28;20594;-70
2022/08/02 06:48:22;;;;;;;3.27;3.00;;;;;;;21.50;69.52;98320.88;5054160;28;20312;-70
2022/08/02 06:50:48;;;;;;;3.10;2.80;;;;;;;21.44;69.95;98328.22;5053885;28;20208;-70
2022/08/02 06:53:15;;;;;;;5.50;2.80;;;;;;;21.57;68.90;98332.19;5054054;28;20718;-70
2022/08/02 06:55:41;;;;;;;4.50;4.13;;;;;;;21.53;69.04;98328.44;5054624;28;20308;-70
2022/08/02 06:58:08;;;;;;;3.67;3.37;;;;;;;21.46;70.39;98336.06;5053943;28;20216;-70
2022/08/02 07:00:34;;;;;;;3.10;2.77;;;;;;;21.53;69.21;98325.72;5054676;28;20247;-70
2022/08/02 07:03:01;;;;;;;5.50;2.97;;;;;;;21.72;68.84;98329.41;5054160;28;20209;-70
2022/08/02 07:05:28;;;;;;;4.23;2.93;;;;;;;21.70;68.44;98335.09;5053958;28;20209;-70
2022/08/02 07:07:54;;;;;;;6.03;3.97;;;;;;;21.50;69.35;98335.22;5054683;28;20628;-70
2022/08/02 07:10:20;;;;;;;4.60;4.20;;;;;;;21.41;68.88;98345.03;5053662;28;20209;-70
2022/08/02 07:12:47;;;;;;;5.57;4.47;;;;;;;21.49;68.44;98336.31;5042076;28;20288;-70
2022/08/02 07:15:15;;;;;;;5.87;3.80;;;;;;;21.72;68.66;98337.50;5034049;28;20212;-70
2022/08/02 07:17:41;;;;;;;5.70;3.37;;;;;;;21.72;68.09;98337.50;5033938;28;20292;-70
2022/08/02 07:20:09;;;;;;;6.00;3.13;;;;;;;21.90;68.28;98343.06;5033712;28;20236;-70
2022/08/02 07:22:36;;;;;;;3.83;3.40;;;;;;;21.88;67.87;98337.09;5033081;28;20209;-70
2022/08/02 07:25:04;;;;;;;4.03;3.07;;;;;;;22.18;66.96;98336.00;5033836;28;20206;-70
2022/08/02 07:27:30;;;;;;;14.10;11.07;;;;;;;22.41;66.06;98344.16;5033861;28;20206;-70
2022/08/02 07:29:57;;;;;;;5.47;3.50;;;;;;;22.54;65.43;98342.69;5033431;28;20236;-70
2022/08/02 07:32:27;;;;;;;4.27;3.50;;;;;;;22.70;65.21;98341.41;5033890;28;20308;-70
2022/08/02 07:34:55;;;;;;;4.10;3.03;;;;;;;23.14;63.65;98341.91;5033598;28;20297;-70
2022/08/02 07:37:24;;;;;;;3.77;3.40;;;;;;;23.06;63.47;98348.78;5033802;28;20238;-70
2022/08/02 07:39:51;;;;;;;4.28;3.30;;;;;;;23.22;62.63;98342.09;5033339;28;20317;-70
2022/08/02 07:42:17;;;;;;;5.15;3.05;;;;;;;23.06;63.50;98337.94;5033448;28;20214;-69
2022/08/02 07:44:43;;;;;;;6.55;5.95;;;;;;;22.98;63.77;98341.31;5033481;28;20309;-70
2022/08/02 07:47:10;;;;;;;3.42;3.15;;;;;;;23.03;63.26;98343.16;5033379;28;20628;-70
2022/08/02 07:49:36;;;;;;;3.13;2.83;;;;;;;22.79;64.15;98351.31;5033536;28;20620;-70
2022/08/02 07:52:03;;;;;;;5.80;4.13;;;;;;;22.76;64.12;98345.69;5033122;28;20753;-71
2022/08/02 07:54:29;;;;;;;4.32;3.03;;;;;;;22.85;64.20;98347.47;5033659;28;20570;-71
2022/08/02 07:56:56;;;;;;;4.40;3.45;;;;;;;23.08;62.99;98345.78;5033583;28;20550;-71
2022/08/02 07:59:22;;;;;;;3.72;2.92;;;;;;;23.12;63.14;98346.81;5032827;28;20301;-71
2022/08/02 08:01:50;;;;;;;4.40;3.78;;;;;;;22.57;63.78;98356.44;5033081;28;20550;-71
2022/08/02 08:04:17;;;;;;;4.40;3.80;;;;;;;22.79;64.03;98353.25;5033367;28;20206;-70
2022/08/02 08:06:43;;;;;;;4.50;3.78;;;;;;;23.25;62.68;98354.28;5033379;28;20296;-70
2022/08/02 08:09:13;;;;;;;3.38;3.08;;;;;;;23.21;63.13;98350.53;5033207;28;20316;-71
2022/08/02 08:11:39;;;;;;;4.28;3.03;;;;;;;23.47;61.38;98349.06;5033230;28;20213;-71
2022/08/02 08:14:06;;;;;;;5.50;3.70;;;;;;;23.24;61.82;98348.03;5032911;28;20674;-71
2022/08/02 08:16:33;;;;;;;3.90;3.60;;;;;;;23.41;61.82;98345.63;5033262;28;20304;-70
2022/08/02 08:19:01;;;;;;;3.90;3.60;;;;;;;23.41;61.37;98336.66;5033119;28;20236;-70
2022/08/02 08:21:28;;;;;;;4.30;3.20;;;;;;;23.68;60.84;98334.06;5032687;28;20206;-70
2022/08/02 08:23:55;;;;;;;3.90;3.70;;;;;;;23.79;59.08;98343.66;5033305;28;20201;-70
2022/08/02 08:26:22;;;;;;;3.97;3.67;;;;;;;23.73;59.70;98342.13;5033261;28;20288;-71
2022/08/02 08:28:48;;;;;;;7.53;4.22;;;;;;;23.46;59.71;98344.72;5032898;28;20244;-70
2022/08/02 08:31:15;;;;;;;5.80;3.90;;;;;;;23.50;59.47;98334.88;5033037;28;20229;-71
2022/08/02 08:33:41;;;;;;;3.35;3.05;;;;;;;23.76;59.23;98342.34;5034267;28;20300;-71
2022/08/02 08:36:08;;;;;;;5.10;3.92;;;;;;;23.45;59.02;98345.81;5036910;28;20210;-70
2022/08/02 08:38:34;;;;;;;4.00;3.60;;;;;;;23.58;59.03;98345.09;5036973;28;20206;-71
2022/08/02 08:41:01;;;;;;;5.78;4.30;;;;;;;23.58;59.08;98342.38;5036894;28;20258;-71
2022/08/02 08:43:27;;;;;;;3.60;3.30;;;;;;;23.92;57.59;98343.72;5036578;28;20296;-70
2022/08/02 08:45:54;;;;;;;4.82;4.47;;;;;;;24.07;57.23;98339.94;5036310;28;20245;-71
2022/08/02 08:48:23;;;;;;;4.85;4.45;;;;;;;24.05;56.60;98339.44;5036747;28;20687;-71
2022/08/02 08:50:53;;;;;;;7.00;4.13;;;;;;;24.19;56.79;98335.63;5036978;28;20202;-71
2022/08/02 08:53:22;;;;;;;11.38;10.40;;;;;;;24.11;57.25;98332.81;5037399;28;20296;-71
2022/08/02 08:55:48;;;;;;;5.47;4.15;;;;;;;24.19;55.89;98327.50;5036879;28;20205;-71
2022/08/02 08:58:15;;;;;;;4.65;4.22;;;;;;;24.25;55.75;98342.59;5036583;28;20205;-71
2022/08/02 09:00:41;;;;;;;6.60;3.85;;;;;;;23.83;57.00;98341.97;5036882;28;20236;-72
2022/08/02 09:03:08;;;;;;;4.68;4.28;;;;;;;23.72;57.18;98344.03;5036502;28;20684;-71
2022/08/02 09:05:37;;;;;;;3.60;3.30;;;;;;;24.02;56.68;98334.63;5037487;28;20210;-72
2022/08/02 09:08:04;;;;;;;4.32;3.72;;;;;;;24.38;55.44;98319.28;5036419;28;20292;-71
2022/08/02 09:10:39;;;;;;;4.45;3.80;;;;;;;24.58;55.15;98327.00;5036308;28;20226;-72
2022/08/02 09:13:06;;;;;;;6.95;4.93;;;;;;;24.01;56.39;98333.00;5036118;28;20685;-72
2022/08/02 09:15:33;;;;;;;6.55;4.07;;;;;;;24.32;55.47;98331.31;5036022;28;20206;-71
2022/08/02 09:17:59;;;;;;;4.35;3.88;;;;;;;24.32;55.48;98323.16;5036376;28;20267;-71
2022/08/02 09:20:26;;;;;;;6.47;4.20;;;;;;;24.62;55.13;98320.72;5036933;28;20320;-71
2022/08/02 09:23:09;;;;;;;5.10;3.92;;;;;;;24.62;55.45;98320.72;5036792;28;20241;-71
2022/08/02 09:25:37;;;;;;;7.00;4.47;;;;;;;24.58;55.41;98316.97;5036410;28;20282;-71
2022/08/02 09:28:06;;;;;;;4.07;3.72;;;;;;;24.24;55.94;98327.41;5036262;28;20320;-71
2022/08/02 09:30:42;;;;;;;5.45;4.53;;;;;;;24.29;55.44;98329.22;5035960;28;20261;-71
2022/08/02 09:33:09;;;;;;;6.28;4.78;;;;;;;24.12;56.36;98324.38;5036084;28;20277;-71
2022/08/02 09:35:38;;;;;;;5.43;4.65;;;;;;;24.66;54.76;98321.72;5036162;28;20213;-71
2022/08/02 09:38:14;;;;;;;4.13;3.83;;;;;;;24.61;54.72;98321.00;5035990;28;20202;-71
2022/08/02 09:40:43;;;;;;;8.38;4.68;;;;;;;25.10;53.21;98307.47;5035820;28;20319;-72
2022/08/02 09:43:09;;;;;;;5.65;3.63;;;;;;;25.47;52.24;98318.84;5035609;28;20747;-71
2022/08/02 09:45:36;;;;;;;5.10;4.15;;;;;;;25.67;51.83;98310.19;5034658;28;20665;-71
2022/08/02 09:48:07;;;;;;;4.78;3.97;;;;;;;25.82;50.88;98315.25;5035834;28;20292;-71
2022/08/02 09:50:34;;;;;;;5.55;4.50;;;;;;;25.93;50.29;98315.84;5035383;28;20225;-71
2022/08/02 09:53:01;;;;;;;5.22;4.75;;;;;;;25.96;50.46;98310.56;5035510;28;20740;-71
2022/08/02 09:55:28;;;;;;;4.43;3.78;;;;;;;26.34;50.49;98305.47;5035328;28;20206;-71
2022/08/02 09:57:56;;;;;;;4.22;3.70;;;;;;;26.24;49.39;98311.22;5035688;28;20208;-71
2022/08/02 10:00:23;;;;;;;5.20;3.58;;;;;;;25.87;50.39;98314.34;5035328;28;20309;-71
2022/08/02 10:03:10;;;;;;;7.00;4.00;;;;;;;25.70;51.04;98317.72;5035558;28;20216;-72
2022/08/02 10:05:48;;;;;;;4.20;3.80;;;;;;;25.79;50.96;98317.81;5035983;28;20213;-71
2022/08/02 10:08:15;;;;;;;4.38;3.47;;;;;;;25.57;51.39;98315.91;5035073;28;20517;-71
2022/08/02 10:10:42;;;;;;;6.32;4.38;;;;;;;25.21;51.40;98319.72;5035346;28;20289;-71
2022/08/02 10:13:10;;;;;;;4.18;3.78;;;;;;;25.60;50.59;98306.31;5035001;28;20209;-71
2022/08/02 10:15:38;;;;;;;4.22;3.83;;;;;;;25.53;50.24;98311.38;5035273;28;20549;-71
2022/08/02 10:18:08;;;;;;;4.25;3.85;;;;;;;26.26;48.29;98309.78;5034894;28;20747;-71
2022/08/02 10:20:43;;;;;;;3.53;3.20;;;;;;;26.33;48.70;98306.59;5035163;28;20317;-71
2022/08/02 10:23:13;;;;;;;4.25;3.83;;;;;;;26.09;49.01;98303.41;5018377;28;20272;-71
2022/08/02 10:25:40;;;;;;;4.88;3.85;;;;;;;26.42;47.38;98302.78;5034899;28;20213;-70
2022/08/02 10:28:07;;;;;;;4.50;4.05;;;;;;;26.32;47.70;98297.59;5034516;28;20217;-71
2022/08/02 10:30:40;;;;;;;4.50;3.50;;;;;;;26.53;47.49;98298.66;5034592;28;20229;-71
2022/08/02 10:33:10;;;;;;;3.95;3.55;;;;;;;26.98;46.04;98291.09;5034927;28;20284;-71
2022/08/02 10:35:39;;;;;;;3.38;3.17;;;;;;;27.40;46.08;98290.31;5017475;28;20393;-71
2022/08/02 10:38:09;;;;;;;4.70;3.40;;;;;;;27.31;46.00;98286.00;5034649;28;20297;-71
2022/08/02 10:40:46;;;;;;;4.10;3.70;;;;;;;27.63;45.59;98282.78;5017317;28;20233;-71
2022/08/02 10:43:32;;;;;;;4.38;3.70;;;;;;;27.76;45.13;98277.13;5034868;28;20296;-71
2022/08/02 10:46:24;;;;;;;3.80;3.40;;;;;;;27.91;44.69;98273.91;5034262;28;20297;-71
2022/08/02 10:49:06;;;;;;;3.80;3.50;;;;;;;27.72;44.32;98267.97;5034556;28;20221;-70
2022/08/02 10:51:54;;;;;;;3.70;3.40;;;;;;;27.54;44.56;98277.31;5034896;28;20548;-71
2022/08/02 10:54:23;;;;;;;3.53;3.33;;;;;;;27.70;43.92;98266.69;5034387;28;20202;-72
2022/08/02 10:56:52;;;;;;;3.72;3.22;;;;;;;27.47;43.94;98273.47;5034425;28;20206;-70
2022/08/02 10:59:25;;;;;;;3.58;3.00;;;;;;;27.49;43.86;98272.00;5034211;28;20232;-70
2022/08/02 11:01:52;;;;;;;3.47;3.28;;;;;;;27.47;43.54;98270.72;5034415;28;20218;-71
2022/08/02 11:04:19;;;;;;;3.63;3.03;;;;;;;27.70;43.20;98267.50;5034403;28;20209;-71
2022/08/02 11:07:10;;;;;;;3.70;3.40;;;;;;;28.03;42.40;98257.63;5034748;28;20206;-71
2022/08/02 11:09:37;;;;;;;3.40;3.20;;;;;;;27.58;43.16;98261.88;5034249;28;20764;-72
2022/08/02 11:12:18;;;;;;;3.25;3.03;;;;;;;27.99;43.02;98258.63;5034059;28;20263;-71
2022/08/02 11:15:06;;;;;;;11.43;3.05;;;;;;;28.03;42.50;98265.81;5033867;28;20201;-70
2022/08/02 11:17:51;;;;;;;3.38;3.17;;;;;;;28.30;42.37;98259.16;5034177;28;20223;-71
2022/08/02 11:20:19;;;;;;;4.32;3.67;;;;;;;28.34;42.26;98249.94;5033641;28;20226;-71
2022/08/02 11:22:47;;;;;;;3.03;2.83;;;;;;;28.67;41.90;98255.59;5033859;28;20209;-71
2022/08/02 11:25:23;;;;;;;4.93;3.70;;;;;;;26.06;45.78;98255.00;5034059;28;20308;-71
2022/08/02 11:27:53;;;;;;;4.28;3.85;;;;;;;26.38;45.71;98254.66;5033672;28;20209;-71
2022/08/02 11:30:21;;;;;;;3.65;3.45;;;;;;;26.79;45.33;98255.09;5033518;28;20316;-71
2022/08/02 11:32:48;;;;;;;6.68;3.38;;;;;;;26.54;45.40;98253.09;5033948;28;20296;-71
2022/08/02 11:35:15;;;;;;;4.78;3.17;;;;;;;26.67;45.43;98249.47;5033973;28;20202;-71
2022/08/02 11:37:44;;;;;;;3.60;3.28;;;;;;;26.61;45.16;98245.28;5033806;28;20292;-71
2022/08/02 11:40:18;;;;;;;3.58;2.97;;;;;;;26.68;44.75;98245.63;5033277;28;20672;-71
2022/08/02 11:42:49;;;;;;;3.78;3.30;;;;;;;27.08;43.61;98249.81;5033623;28;20206;-71
2022/08/02 11:45:16;;;;;;;3.72;3.42;;;;;;;26.94;43.75;98251.91;5033576;28;20301;-72
2022/08/02 11:47:51;;;;;;;4.22;3.15;;;;;;;27.14;42.98;98245.84;5033595;28;20292;-71